createdAt,value
2022-08-11T00:00:01.275Z,100.00
2022-08-11T00:02:35.653Z,100.00
2022-08-11T00:05:08.934Z,100.00
2022-08-11T00:07:45.058Z,100.00
2022-08-11T00:10:16.687Z,100.00
2022-08-11T00:12:53.698Z,100.00
2022-08-11T00:15:23.248Z,100.00
2022-08-11T00:17:58.330Z,100.00
2022-08-11T00:20:32.799Z,100.00
2022-08-11T00:23:04.912Z,100.00
2022-08-11T00:25:40.292Z,100.00
2022-08-11T00:28:32.550Z,100.00
2022-08-11T00:31:05.396Z,100.00
2022-08-11T00:33:44.258Z,100.00
2022-08-11T00:36:23.394Z,100.00
2022-08-11T00:38:55.799Z,100.00
2022-08-11T00:41:36.270Z,100.00
2022-08-11T00:44:38.689Z,100.00
2022-08-11T00:47:18.937Z,100.00
2022-08-11T00:49:59.910Z,100.00
2022-08-11T00:52:46.463Z,100.00
2022-08-11T00:55:56.027Z,100.00
2022-08-11T00:59:00.287Z,100.00
2022-08-11T01:01:45.058Z,100.00
2022-08-11T01:04:35.148Z,100.00
2022-08-11T01:08:01.002Z,100.00
2022-08-11T01:10:59.962Z,100.00
2022-08-11T01:14:08.183Z,100.00
2022-08-11T01:17:08.959Z,100.00
2022-08-11T01:20:46.539Z,100.00
2022-08-11T01:23:53.374Z,100.00
2022-08-11T01:26:51.962Z,100.00
2022-08-11T01:30:03.803Z,100.00
2022-08-11T01:33:05.426Z,100.00
2022-08-11T01:36:01.655Z,100.00
2022-08-11T01:39:00.195Z,100.00
2022-08-11T01:42:01.138Z,100.00
2022-08-11T01:45:00.736Z,100.00
2022-08-11T01:47:54.327Z,100.00
2022-08-11T01:50:37.490Z,100.00
2022-08-11T01:53:20.208Z,100.00
2022-08-11T01:55:57.695Z,100.00
2022-08-11T01:58:43.385Z,100.00
2022-08-11T02:01:29.657Z,100.00
2022-08-11T02:04:09.755Z,100.00
2022-08-11T02:06:58.523Z,100.00
2022-08-11T02:09:54.826Z,100.00
2022-08-11T02:12:38.040Z,100.00
2022-08-11T02:15:17.985Z,100.00
2022-08-11T02:18:00.363Z,100.00
2022-08-11T02:20:50.633Z,100.00
2022-08-11T02:24:04.178Z,100.00
2022-08-11T02:26:41.982Z,100.00
2022-08-11T02:29:20.414Z,100.00
2022-08-11T02:32:28.607Z,100.00
2022-08-11T02:35:07.331Z,100.00
2022-08-11T02:37:50.526Z,100.00
2022-08-11T02:40:35.915Z,100.00
2022-08-11T02:43:14.486Z,100.00
2022-08-11T02:46:02.648Z,100.00
2022-08-11T02:49:09.168Z,100.00
2022-08-11T02:51:44.221Z,100.00
2022-08-11T02:54:23.035Z,100.00
2022-08-11T02:56:58.858Z,100.00
2022-08-11T02:59:52.667Z,100.00
2022-08-11T03:02:50.550Z,100.00
2022-08-11T03:05:40.450Z,100.00
2022-08-11T03:08:31.448Z,100.00
2022-08-11T03:11:26.328Z,100.00
2022-08-11T03:14:28.997Z,100.00
2022-08-11T03:17:08.032Z,100.00
2022-08-11T03:19:48.149Z,100.00
2022-08-11T03:22:25.377Z,100.00
2022-08-11T03:25:03.595Z,100.00
2022-08-11T03:27:45.758Z,100.00
2022-08-11T03:30:18.093Z,100.00
2022-08-11T03:33:41.844Z,100.00
2022-08-11T03:36:33.335Z,100.00
2022-08-11T03:39:32.223Z,100.00
2022-08-11T03:42:12.629Z,100.00
2022-08-11T03:44:57.758Z,100.00
2022-08-11T03:47:39.649Z,100.00
2022-08-11T03:50:34.039Z,100.00
2022-08-11T03:53:16.702Z,100.00
2022-08-11T03:56:14.397Z,100.00
2022-08-11T03:59:17.501Z,100.00
2022-08-11T04:02:26.343Z,100.00
2022-08-11T04:05:30.937Z,100.00
2022-08-11T04:08:35.711Z,100.00
2022-08-11T04:11:46.646Z,100.00
2022-08-11T04:15:09.467Z,100.00
2022-08-11T04:18:19.775Z,100.00
2022-08-11T04:21:05.198Z,100.00
2022-08-11T04:24:35.706Z,100.00
2022-08-11T04:27:36.956Z,100.00
2022-08-11T04:30:15.088Z,100.00
2022-08-11T04:33:18.177Z,100.00
2022-08-11T04:36:00.053Z,100.00
2022-08-11T04:38:59.028Z,100.00
2022-08-11T04:42:20.499Z,100.00
2022-08-11T04:45:38.179Z,100.00
2022-08-11T04:48:58.106Z,100.00
2022-08-11T04:52:14.450Z,100.00
2022-08-11T04:55:19.513Z,100.00
2022-08-11T04:58:14.872Z,100.00
2022-08-11T05:01:15.654Z,100.00
2022-08-11T05:04:05.774Z,100.00
2022-08-11T05:07:18.793Z,100.00
2022-08-11T05:10:20.366Z,100.00
2022-08-11T05:12:54.059Z,100.00
2022-08-11T05:15:57.046Z,100.00
2022-08-11T05:18:48.342Z,100.00
2022-08-11T05:21:44.686Z,100.00
2022-08-11T05:24:39.530Z,100.00
2022-08-11T05:27:27.993Z,100.00
2022-08-11T05:30:21.101Z,100.00
2022-08-11T05:33:17.424Z,100.00
2022-08-11T05:36:02.015Z,100.00
2022-08-11T05:38:55.360Z,100.00
2022-08-11T05:41:43.694Z,100.00
2022-08-11T05:44:36.024Z,100.00
2022-08-11T05:47:23.977Z,100.00
2022-08-11T05:50:13.588Z,100.00
2022-08-11T05:53:09.171Z,100.00
2022-08-11T05:56:03.024Z,100.00
2022-08-11T05:58:42.633Z,100.00
2022-08-11T06:01:13.471Z,100.00
2022-08-11T06:04:04.001Z,100.00
2022-08-11T06:06:33.691Z,100.00
2022-08-11T06:09:04.626Z,100.00
2022-08-11T06:11:44.326Z,100.00
2022-08-11T06:14:17.830Z,100.00
2022-08-11T06:16:50.678Z,100.00
2022-08-11T06:19:25.662Z,100.00
2022-08-11T06:21:55.328Z,100.00
2022-08-11T06:24:25.713Z,100.00
2022-08-11T06:27:11.869Z,100.00
2022-08-11T06:29:54.550Z,100.00
2022-08-11T06:32:29.887Z,100.00
2022-08-11T06:35:12.185Z,100.00
2022-08-11T06:38:04.564Z,100.00
2022-08-11T06:41:10.069Z,100.00
2022-08-11T06:43:55.753Z,100.00
2022-08-11T06:46:30.320Z,100.00
2022-08-11T06:49:02.684Z,100.00
2022-08-11T06:51:32.547Z,100.00
2022-08-11T06:54:05.526Z,100.00
2022-08-11T07:00:05.810Z,100.00
2022-08-11T07:02:39.384Z,100.00
2022-08-11T07:05:13.678Z,100.00
2022-08-11T07:08:35.997Z,100.00
2022-08-11T07:11:39.505Z,100.00
2022-08-11T07:14:38.219Z,100.00
2022-08-11T07:17:12.489Z,100.00
2022-08-11T07:20:06.137Z,100.00
2022-08-11T07:22:56.190Z,100.00
2022-08-11T07:25:44.002Z,100.00
2022-08-11T07:28:33.059Z,100.00
2022-08-11T07:31:08.970Z,100.00
2022-08-11T07:34:06.379Z,100.00
2022-08-11T07:36:41.190Z,100.00
2022-08-11T07:39:17.143Z,100.00
2022-08-11T07:41:47.410Z,100.00
2022-08-11T07:44:18.141Z,100.00
2022-08-11T07:47:07.904Z,100.00
2022-08-11T07:49:57.693Z,100.00
2022-08-11T07:52:34.978Z,100.00
2022-08-11T07:55:08.605Z,100.00
2022-08-11T07:58:16.664Z,100.00
2022-08-11T08:01:21.666Z,100.00
2022-08-11T08:04:11.186Z,100.00
2022-08-11T08:06:58.527Z,100.00
2022-08-11T08:09:44.743Z,100.00
2022-08-11T08:12:33.291Z,100.00
2022-08-11T08:15:25.577Z,100.00
2022-08-11T08:18:09.506Z,100.00
2022-08-11T08:20:50.858Z,100.00
2022-08-11T08:23:33.789Z,100.00
2022-08-11T08:26:16.702Z,100.00
2022-08-11T08:28:47.748Z,100.00
2022-08-11T08:31:16.356Z,100.00
2022-08-11T08:33:45.321Z,100.00
2022-08-11T08:36:16.522Z,100.00
2022-08-11T08:38:50.005Z,100.00
2022-08-11T08:41:23.797Z,100.00
2022-08-11T08:44:27.386Z,100.00
2022-08-11T08:46:52.752Z,100.00
2022-08-11T08:49:28.740Z,100.00
2022-08-11T08:52:29.629Z,100.00
2022-08-11T08:54:58.959Z,100.00
2022-08-11T08:57:31.463Z,100.00
2022-08-11T09:00:12.583Z,100.00
2022-08-11T09:02:42.893Z,100.00
2022-08-11T09:05:12.314Z,100.00
2022-08-11T09:07:43.442Z,100.00
2022-08-11T09:10:12.789Z,100.00
2022-08-11T09:12:44.295Z,100.00
2022-08-11T09:15:15.156Z,100.00
2022-08-11T09:17:50.893Z,100.00
2022-08-11T09:20:21.777Z,100.00
2022-08-11T09:24:08.720Z,100.00
2022-08-11T09:26:22.555Z,100.00
2022-08-11T09:29:00.826Z,100.00
2022-08-11T09:31:38.934Z,100.00
2022-08-11T09:34:09.547Z,100.00
2022-08-11T09:36:58.516Z,100.00
2022-08-11T09:39:48.260Z,100.00
2022-08-11T09:42:23.404Z,100.00
2022-08-11T09:44:54.051Z,100.00
2022-08-11T09:47:25.349Z,100.00
2022-08-11T09:50:00.681Z,98.57
2022-08-11T09:52:34.587Z,95.28
2022-08-11T09:55:11.341Z,93.33
2022-08-11T09:57:59.756Z,88.40
2022-08-11T10:00:37.971Z,88.82
2022-08-11T10:03:09.872Z,87.84
2022-08-11T10:05:57.541Z,86.75
2022-08-11T10:08:30.184Z,85.27
2022-08-11T10:11:01.002Z,82.28
2022-08-11T10:14:33.682Z,79.45
2022-08-11T10:16:46.281Z,69.50
2022-08-11T10:19:16.295Z,71.81
2022-08-11T10:22:10.727Z,71.37
2022-08-11T10:24:57.436Z,70.41
2022-08-11T10:27:29.154Z,73.25
2022-08-11T10:30:34.720Z,79.33
2022-08-11T10:33:37.651Z,81.10
2022-08-11T10:36:16.725Z,79.95
2022-08-11T10:38:52.479Z,79.64
2022-08-11T10:42:01.861Z,78.61
2022-08-11T10:44:34.207Z,78.60
2022-08-11T10:47:21.548Z,77.91
2022-08-11T10:50:10.788Z,76.05
2022-08-11T10:52:58.200Z,75.20
2022-08-11T10:55:45.595Z,75.54
2022-08-11T10:58:33.422Z,77.50
2022-08-11T11:01:04.576Z,78.68
2022-08-11T11:03:35.619Z,79.20
2022-08-11T11:06:27.681Z,78.80
2022-08-11T11:09:04.764Z,78.39
2022-08-11T11:11:56.031Z,78.14
2022-08-11T11:14:49.917Z,76.55
2022-08-11T11:17:49.369Z,76.86
2022-08-11T11:20:37.158Z,75.50
2022-08-11T11:23:18.029Z,74.10
2022-08-11T11:26:27.949Z,71.39
2022-08-11T11:29:35.565Z,71.08
2022-08-11T11:32:26.226Z,67.77
2022-08-11T11:35:12.943Z,65.67
2022-08-11T11:38:03.498Z,64.64
2022-08-11T11:40:32.956Z,59.82
2022-08-11T11:43:02.569Z,61.56
2022-08-11T11:45:33.928Z,56.24
2022-08-11T11:48:04.893Z,58.20
2022-08-11T11:50:36.174Z,55.40
2022-08-11T11:53:09.230Z,55.22
2022-08-11T11:55:39.181Z,55.24
2022-08-11T11:58:25.754Z,56.12
2022-08-11T12:01:12.797Z,54.42
2022-08-11T12:03:45.523Z,54.92
2022-08-11T12:06:15.548Z,54.20
2022-08-11T12:08:45.281Z,55.10
2022-08-11T12:11:32.522Z,56.47
2022-08-11T12:14:10.366Z,56.14
2022-08-11T12:16:42.992Z,55.95
2022-08-11T12:19:15.911Z,54.05
2022-08-11T12:22:00.859Z,50.80
2022-08-11T12:24:48.633Z,52.10
2022-08-11T12:27:25.753Z,50.86
2022-08-11T12:29:57.674Z,48.07
2022-08-11T12:32:31.565Z,48.52
2022-08-11T12:35:02.441Z,48.77
2022-08-11T12:37:34.321Z,49.91
2022-08-11T12:40:43.099Z,46.24
2022-08-11T12:43:38.439Z,49.80
2022-08-11T12:46:11.559Z,48.40
2022-08-11T12:49:03.679Z,50.77
2022-08-11T12:52:11.213Z,51.20
2022-08-11T12:54:52.461Z,51.66
2022-08-11T12:57:48.255Z,51.81
2022-08-11T13:00:37.033Z,53.75
2022-08-11T13:03:25.765Z,54.60
2022-08-11T13:05:56.924Z,54.92
2022-08-11T13:08:29.747Z,55.03
2022-08-11T13:11:19.756Z,54.48
2022-08-11T13:13:57.161Z,54.41
2022-08-11T13:16:30.600Z,55.33
2022-08-11T13:19:01.363Z,53.75
2022-08-11T13:21:31.253Z,53.96
2022-08-11T13:24:03.768Z,53.51
2022-08-11T13:26:47.274Z,53.61
2022-08-11T13:29:24.007Z,53.32
2022-08-11T13:31:54.205Z,54.16
2022-08-11T13:34:27.855Z,51.95
2022-08-11T13:37:01.727Z,52.74
2022-08-11T13:39:35.393Z,50.86
2022-08-11T13:42:05.779Z,48.49
2022-08-11T13:44:38.314Z,49.42
2022-08-11T13:47:09.927Z,50.25
2022-08-11T13:49:41.517Z,48.54
2022-08-11T13:52:15.303Z,47.22
2022-08-11T13:54:48.400Z,48.40
2022-08-11T13:58:08.271Z,49.08
2022-08-11T14:00:23.559Z,49.68
2022-08-11T14:02:58.941Z,49.98
2022-08-11T14:05:29.925Z,47.99
2022-08-11T14:08:03.220Z,45.59
2022-08-11T14:10:39.120Z,44.83
2022-08-11T14:13:29.178Z,43.20
2022-08-11T14:16:15.266Z,40.96
2022-08-11T14:18:46.877Z,39.83
2022-08-11T14:21:36.024Z,39.51
2022-08-11T14:24:06.390Z,39.34
2022-08-11T14:26:39.274Z,38.09
2022-08-11T14:29:14.490Z,36.52
2022-08-11T14:31:47.682Z,35.67
2022-08-11T14:34:19.053Z,35.61
2022-08-11T14:36:52.466Z,33.92
2022-08-11T14:39:25.127Z,35.42
2022-08-11T14:42:14.834Z,34.33
2022-08-11T14:45:03.989Z,34.85
2022-08-11T14:47:35.325Z,35.57
2022-08-11T14:50:10.416Z,33.02
2022-08-11T14:52:46.208Z,34.26
2022-08-11T14:55:33.642Z,33.41
2022-08-11T14:58:06.234Z,33.07
2022-08-11T15:00:36.252Z,33.78
2022-08-11T15:03:12.083Z,34.19
2022-08-11T15:05:56.218Z,33.24
2022-08-11T15:08:42.823Z,32.69
2022-08-11T15:11:27.156Z,32.63
2022-08-11T15:13:58.365Z,32.38
2022-08-11T15:16:45.334Z,32.79
2022-08-11T15:19:17.257Z,32.07
2022-08-11T15:22:03.336Z,33.51
2022-08-11T15:24:33.800Z,32.81
2022-08-11T15:27:27.572Z,32.76
2022-08-11T15:30:32.615Z,31.11
2022-08-11T15:33:24.426Z,30.45
2022-08-11T15:36:11.932Z,30.18
2022-08-11T15:38:46.349Z,29.92
2022-08-11T15:41:36.402Z,29.31
2022-08-11T15:44:58.835Z,28.85
2022-08-11T15:47:22.765Z,29.55
2022-08-11T15:50:10.953Z,29.80
2022-08-11T15:52:49.650Z,28.65
2022-08-11T15:55:19.958Z,29.65
2022-08-11T15:58:10.742Z,30.04
2022-08-11T16:01:04.324Z,30.86
2022-08-11T16:04:09.166Z,30.43
2022-08-11T16:06:49.945Z,29.97
2022-08-11T16:09:22.914Z,30.70
2022-08-11T16:11:52.953Z,29.57
2022-08-11T16:14:54.637Z,28.62
2022-08-11T16:17:28.047Z,27.80
2022-08-11T16:20:08.916Z,28.43
2022-08-11T16:23:00.419Z,29.10
2022-08-11T16:27:01.928Z,29.30
2022-08-11T16:28:31.712Z,29.75
2022-08-11T16:31:04.240Z,29.04
2022-08-11T16:33:50.337Z,27.01
2022-08-11T16:36:41.105Z,27.05
2022-08-11T16:39:11.754Z,27.16
2022-08-11T16:41:59.837Z,26.62
2022-08-11T16:44:49.609Z,26.18
2022-08-11T16:48:35.213Z,27.34
2022-08-11T16:50:12.402Z,27.87
2022-08-11T16:52:42.818Z,27.18
2022-08-11T16:55:11.858Z,26.99
2022-08-11T16:58:18.832Z,26.15
2022-08-11T17:00:51.317Z,26.38
2022-08-11T17:03:40.540Z,25.87
2022-08-11T17:06:29.342Z,25.52
2022-08-11T17:09:22.813Z,26.70
2022-08-11T17:12:17.546Z,25.85
2022-08-11T17:14:51.595Z,25.21
2022-08-11T17:17:26.281Z,25.47
2022-08-11T17:20:39.549Z,25.62
2022-08-11T17:23:05.443Z,24.90
2022-08-11T17:26:03.462Z,24.28
2022-08-11T17:28:25.983Z,25.26
2022-08-11T17:31:17.778Z,24.30
2022-08-11T17:34:11.139Z,25.19
2022-08-11T17:36:44.750Z,24.83
2022-08-11T17:39:16.232Z,25.43
2022-08-11T17:42:04.411Z,24.75
2022-08-11T17:44:53.033Z,25.03
2022-08-11T17:47:39.914Z,25.22
2022-08-11T17:50:17.864Z,25.38
2022-08-11T17:53:05.859Z,24.98
2022-08-11T17:55:54.099Z,23.06
2022-08-11T17:58:43.956Z,24.15
2022-08-11T18:01:14.019Z,24.16
2022-08-11T18:03:53.038Z,24.55
2022-08-11T18:06:32.581Z,24.49
2022-08-11T18:09:22.666Z,24.06
2022-08-11T18:12:12.746Z,23.22
2022-08-11T18:15:05.383Z,23.44
2022-08-11T18:17:51.994Z,24.66
2022-08-11T18:20:38.840Z,26.89
2022-08-11T18:23:40.328Z,28.36
2022-08-11T18:26:37.928Z,28.07
2022-08-11T18:29:25.975Z,29.77
2022-08-11T18:32:21.242Z,30.53
2022-08-11T18:35:11.008Z,31.34
2022-08-11T18:38:04.863Z,31.60
2022-08-11T18:40:54.268Z,31.34
2022-08-11T18:43:43.015Z,31.41
2022-08-11T18:46:32.112Z,32.24
2022-08-11T18:49:27.243Z,31.70
2022-08-11T18:52:34.195Z,30.90
2022-08-11T18:55:22.812Z,31.74
2022-08-11T18:58:11.080Z,31.55
2022-08-11T19:00:59.225Z,32.05
2022-08-11T19:03:48.588Z,31.80
2022-08-11T19:06:41.025Z,31.99
2022-08-11T19:09:33.209Z,32.04
2022-08-11T19:12:21.107Z,32.51
2022-08-11T19:15:10.529Z,32.86
2022-08-11T19:18:01.479Z,32.81
2022-08-11T19:20:51.981Z,32.50
2022-08-11T19:23:52.416Z,33.01
2022-08-11T19:26:40.521Z,33.76
2022-08-11T19:30:04.718Z,34.05
2022-08-11T19:32:35.649Z,35.14
2022-08-11T19:35:22.796Z,36.73
2022-08-11T19:38:10.717Z,38.18
2022-08-11T19:40:58.933Z,39.53
2022-08-11T19:43:48.053Z,40.53
2022-08-11T19:46:37.159Z,41.05
2022-08-11T19:49:24.591Z,41.79
2022-08-11T19:52:11.137Z,42.67
2022-08-11T19:54:59.821Z,43.37
2022-08-11T19:57:50.224Z,43.88
2022-08-11T20:00:38.832Z,44.47
2022-08-11T20:03:27.777Z,45.85
2022-08-11T20:06:16.150Z,46.62
2022-08-11T20:09:04.572Z,48.13
2022-08-11T20:11:56.164Z,49.02
2022-08-11T20:14:47.308Z,50.58
2022-08-11T20:17:35.170Z,50.72
2022-08-11T20:20:23.635Z,51.73
2022-08-11T20:23:11.694Z,52.10
2022-08-11T20:26:34.616Z,52.74
2022-08-11T20:29:30.501Z,52.64
2022-08-11T20:32:18.927Z,53.39
2022-08-11T20:35:06.549Z,54.04
2022-08-11T20:37:54.739Z,54.32
2022-08-11T20:40:43.427Z,54.86
2022-08-11T20:44:06.262Z,55.57
2022-08-11T20:46:39.110Z,55.63
2022-08-11T20:49:40.951Z,56.25
2022-08-11T20:52:38.624Z,56.56
2022-08-11T20:55:46.439Z,56.28
2022-08-11T20:59:11.109Z,56.78
2022-08-11T21:01:44.165Z,57.16
2022-08-11T21:04:32.511Z,57.42
2022-08-11T21:07:28.248Z,56.27
2022-08-11T21:10:22.721Z,55.75
2022-08-11T21:13:23.965Z,54.87
2022-08-11T21:16:33.394Z,55.77
2022-08-11T21:20:00.033Z,56.25
2022-08-11T21:22:59.202Z,55.13
2022-08-11T21:25:59.261Z,54.47
2022-08-11T21:28:45.822Z,53.14
2022-08-11T21:31:33.076Z,53.06
2022-08-11T21:34:20.325Z,52.51
2022-08-11T21:37:08.196Z,52.42
2022-08-11T21:39:58.084Z,51.69
2022-08-11T21:42:46.687Z,51.21
2022-08-11T21:45:34.758Z,51.61
2022-08-11T21:48:23.208Z,52.04
2022-08-11T21:51:08.828Z,52.50
2022-08-11T21:53:54.894Z,52.99
2022-08-11T21:56:43.939Z,52.94
2022-08-11T21:59:30.485Z,53.05
2022-08-11T22:02:17.943Z,53.26
2022-08-11T22:05:03.848Z,53.42
2022-08-11T22:07:50.481Z,53.84
2022-08-11T22:10:41.960Z,54.06
2022-08-11T22:13:32.529Z,54.52
2022-08-11T22:16:19.321Z,54.84
2022-08-11T22:19:08.475Z,55.11
2022-08-11T22:22:02.413Z,55.55
2022-08-11T22:24:52.983Z,56.25
2022-08-11T22:27:40.859Z,57.43
2022-08-11T22:30:29.813Z,65.76
2022-08-11T22:33:24.378Z,70.89
2022-08-11T22:36:14.897Z,76.69
2022-08-11T22:39:03.724Z,84.36
2022-08-11T22:41:50.774Z,85.05
2022-08-11T22:44:37.089Z,87.77
2022-08-11T22:47:34.911Z,90.09
2022-08-11T22:50:29.291Z,89.67
2022-08-11T22:53:16.237Z,91.21
2022-08-11T22:56:02.608Z,93.81
2022-08-11T22:58:50.320Z,95.51
2022-08-11T23:01:37.464Z,96.75
2022-08-11T23:04:26.030Z,100.00
2022-08-11T23:07:12.935Z,100.00
2022-08-11T23:10:18.899Z,100.00
2022-08-11T23:13:05.507Z,100.00
2022-08-11T23:15:51.947Z,100.00
2022-08-11T23:18:38.541Z,100.00
2022-08-11T23:21:26.874Z,100.00
2022-08-11T23:24:13.287Z,100.00
2022-08-11T23:27:00.820Z,100.00
2022-08-11T23:29:48.884Z,100.00
2022-08-11T23:32:34.334Z,100.00
2022-08-11T23:35:38.533Z,100.00
2022-08-11T23:38:27.000Z,100.00
2022-08-11T23:41:13.764Z,100.00
2022-08-11T23:43:59.831Z,100.00
2022-08-11T23:46:46.482Z,100.00
2022-08-11T23:49:33.710Z,100.00
2022-08-11T23:52:20.300Z,100.00
2022-08-11T23:55:08.760Z,100.00
2022-08-11T23:57:55.695Z,100.00
